Terminal Aerodrome Forecast
Issued by NWS Albany, NY

Home | Current Version | Previous Version | Text Only | Print | Product List | Glossary On
Versions: 1 2 3 4 5 6 7 8 9 10 11 12 13 14 15 16 17 18 19 20 21 22 23 24 25 26 27 28 29 30 31
053
FTUS41 KALY 030558 CCA
TAFALB
TAF COR
KALB 030558Z 0306/0406 34005KT 5SM -DZ BR SCT007 OVC012
      TEMPO 0306/0308 2SM -DZ BR OVC007
     FM030800 33004KT 3SM -DZ BR OVC007
      TEMPO 0308/0312 2SM -SHRA SCT007 OVC011
     FM031200 34004KT P6SM VCSH OVC015
     FM032100 34004KT P6SM SCT025 OVC035
     FM040200 16003KT P6SM VCSH OVC020=

USA.gov is the U.S. government's official web portal to all federal, state and local government web resources and services.